createdAt,value
2023-03-18T00:00:43.553Z,99819.28
2023-03-18T00:05:45.533Z,99817.19
2023-03-18T00:10:50.863Z,99826.13
2023-03-18T00:15:52.235Z,99835.44
2023-03-18T00:20:53.990Z,99843.50
2023-03-18T00:25:57.466Z,99843.13
2023-03-18T00:31:08.946Z,99850.78
2023-03-18T00:36:13.672Z,99862.00
2023-03-18T00:41:16.031Z,99862.00
2023-03-18T00:46:27.450Z,99858.84
2023-03-18T00:51:32.259Z,99860.53
2023-03-18T00:56:36.222Z,99862.63
2023-03-18T01:01:38.955Z,99857.84
2023-03-18T01:06:40.564Z,99843.06
2023-03-18T01:11:42.027Z,99852.56
2023-03-18T01:16:43.557Z,99862.03
2023-03-18T01:21:45.000Z,99860.47
2023-03-18T01:26:47.003Z,99859.88
2023-03-18T01:31:48.749Z,99857.16
2023-03-18T01:36:50.200Z,99865.97
2023-03-18T01:41:51.924Z,99864.69
2023-03-18T01:46:53.935Z,99860.47
2023-03-18T01:52:02.779Z,99871.38
2023-03-18T01:57:06.879Z,99871.13
2023-03-18T02:02:11.386Z,99876.06
2023-03-18T02:07:19.677Z,99871.91
2023-03-18T02:12:50.776Z,99865.69
2023-03-18T02:17:58.840Z,99868.38
2023-03-18T02:23:12.285Z,99870.31
2023-03-18T02:28:20.177Z,99856.97
2023-03-18T02:33:26.131Z,99862.56
2023-03-18T02:38:27.493Z,99844.47
2023-03-18T02:43:31.835Z,99860.84
2023-03-18T02:48:37.577Z,99858.22
2023-03-18T02:53:39.262Z,99870.44
2023-03-18T02:58:41.761Z,99873.41
2023-03-18T03:03:43.806Z,99872.75
2023-03-18T03:08:45.304Z,99872.56
2023-03-18T03:13:46.815Z,99885.00
2023-03-18T03:18:48.200Z,99871.75
2023-03-18T03:23:50.085Z,99884.66
2023-03-18T03:28:51.610Z,99898.69
2023-03-18T03:33:53.195Z,99898.31
2023-03-18T03:38:55.390Z,99904.91
2023-03-18T03:43:56.860Z,99915.53
2023-03-18T03:48:58.240Z,99912.72
2023-03-18T03:53:59.626Z,99920.16
2023-03-18T03:59:01.423Z,99926.88
2023-03-18T04:04:03.967Z,99926.88
2023-03-18T04:09:05.718Z,99926.50
2023-03-18T04:14:08.008Z,99909.50
2023-03-18T04:19:10.052Z,99910.16
2023-03-18T04:24:11.640Z,99919.00
2023-03-18T04:29:13.252Z,99909.94
2023-03-18T04:34:14.674Z,99900.22
2023-03-18T04:39:16.121Z,99908.59
2023-03-18T04:44:17.483Z,99910.63
2023-03-18T04:49:19.648Z,99921.03
2023-03-18T04:54:21.502Z,99903.16
2023-03-18T04:59:23.011Z,99910.44
2023-03-18T05:04:24.349Z,99917.13
2023-03-18T05:09:25.732Z,99913.38
2023-03-18T05:14:28.816Z,99914.88
2023-03-18T05:19:30.513Z,99911.34
2023-03-18T05:24:31.878Z,99923.59
2023-03-18T05:29:33.357Z,99925.25
2023-03-18T05:34:37.551Z,99921.72
2023-03-18T05:39:38.945Z,99931.84
2023-03-18T05:44:40.725Z,99928.22
2023-03-18T05:49:42.333Z,99929.69
2023-03-18T05:54:46.993Z,99927.63
2023-03-18T05:59:48.585Z,99936.34
2023-03-18T06:04:50.005Z,99939.34
2023-03-18T06:09:52.209Z,99939.16
2023-03-18T06:14:54.682Z,99946.84
2023-03-18T06:19:56.872Z,99940.72
2023-03-18T06:24:58.725Z,99944.88
2023-03-18T06:30:02.927Z,99941.38
2023-03-18T06:35:05.265Z,99954.81
2023-03-18T06:40:08.186Z,99952.66
2023-03-18T06:45:10.095Z,99958.91
2023-03-18T06:50:11.795Z,99957.88
2023-03-18T06:55:13.197Z,99968.16
2023-03-18T07:00:15.177Z,99956.75
2023-03-18T07:05:17.178Z,99960.69
2023-03-18T07:10:22.552Z,99960.03
2023-03-18T07:15:24.400Z,99968.75
2023-03-18T07:20:25.842Z,99976.41
2023-03-18T07:25:27.181Z,99986.53
2023-03-18T07:30:28.811Z,99988.53
2023-03-18T07:35:30.417Z,99985.09
2023-03-18T07:40:32.371Z,99987.66
2023-03-18T07:45:34.615Z,99975.19
2023-03-18T07:50:36.428Z,99980.34
2023-03-18T07:55:38.491Z,99987.94
2023-03-18T08:00:39.862Z,99992.97
2023-03-18T08:05:41.246Z,99984.78
2023-03-18T08:10:42.893Z,99985.28
2023-03-18T08:15:44.448Z,99995.97
2023-03-18T08:20:46.010Z,100005.16
2023-03-18T08:25:49.612Z,100004.63
2023-03-18T08:30:55.954Z,99998.97
2023-03-18T08:35:59.272Z,99998.88
2023-03-18T08:41:00.961Z,99995.84
2023-03-18T08:46:02.623Z,99993.59
2023-03-18T08:51:05.339Z,99994.50
2023-03-18T08:56:07.641Z,99987.06
2023-03-18T09:01:11.711Z,99993.31
2023-03-18T09:06:13.530Z,99995.41
2023-03-18T09:11:14.905Z,100001.84
2023-03-18T09:16:17.372Z,100003.06
2023-03-18T09:21:19.105Z,100013.25
2023-03-18T09:26:20.725Z,100007.19
2023-03-18T09:31:22.186Z,99990.22
2023-03-18T09:36:23.842Z,99986.84
2023-03-18T09:42:03.404Z,99983.44
2023-03-18T09:47:36.179Z,99986.38
2023-03-18T09:53:04.086Z,100000.59
2023-03-18T09:58:17.956Z,99999.88
2023-03-18T10:03:33.755Z,99998.75
2023-03-18T10:08:47.792Z,99996.97
2023-03-18T10:14:16.525Z,99991.22
2023-03-18T10:19:17.986Z,99991.34
2023-03-18T10:24:38.329Z,99986.31
2023-03-18T10:29:54.636Z,99972.88
2023-03-18T10:35:03.880Z,99984.78
2023-03-18T10:40:17.642Z,99977.88
2023-03-18T10:45:24.092Z,99981.06
2023-03-18T10:50:54.492Z,99973.16
2023-03-18T10:56:08.378Z,99975.44
2023-03-18T11:01:17.141Z,99973.31
2023-03-18T11:06:25.202Z,99967.53
2023-03-18T11:11:34.749Z,99965.84
2023-03-18T11:16:42.469Z,99967.44
2023-03-18T11:21:44.884Z,99965.88
2023-03-18T11:26:57.206Z,99973.06
2023-03-18T11:32:01.219Z,99972.16
2023-03-18T11:37:05.780Z,99965.34
2023-03-18T11:42:21.721Z,99952.50
2023-03-18T11:47:28.558Z,99966.44
2023-03-18T11:52:40.092Z,99960.97
2023-03-18T11:57:59.195Z,99963.91
2023-03-18T12:03:18.559Z,99952.28
2023-03-18T12:08:47.858Z,99959.63
2023-03-18T12:14:25.720Z,99959.94
2023-03-18T12:19:56.024Z,99957.25
2023-03-18T12:25:17.469Z,99941.78
2023-03-18T12:30:36.632Z,99938.88
2023-03-18T12:35:54.443Z,99937.28
2023-03-18T12:41:01.842Z,99929.69
2023-03-18T12:46:17.260Z,99929.44
2023-03-18T12:51:26.294Z,99934.66
2023-03-18T12:56:30.093Z,99928.72
2023-03-18T13:01:49.234Z,99923.31
2023-03-18T13:07:15.697Z,99925.44
2023-03-18T13:12:38.730Z,99914.69
2023-03-18T13:17:44.569Z,99903.47
2023-03-18T13:23:03.796Z,99908.63
2023-03-18T13:28:36.570Z,99897.22
2023-03-18T13:33:41.226Z,99909.44
2023-03-18T13:39:08.344Z,99900.31
2023-03-18T13:44:17.323Z,99899.75
2023-03-18T13:49:23.811Z,99897.44
2023-03-18T13:54:34.841Z,99889.69
2023-03-18T13:59:36.169Z,99887.44
2023-03-18T14:04:51.335Z,99875.13
2023-03-18T14:10:17.304Z,99891.78
2023-03-18T14:15:36.375Z,99890.38
2023-03-18T14:20:41.772Z,99886.06
2023-03-18T14:25:44.597Z,99888.00
2023-03-18T14:30:58.412Z,99884.63
2023-03-18T14:36:10.230Z,99874.91
2023-03-18T14:41:21.313Z,99875.53
2023-03-18T14:46:27.142Z,99879.19
2023-03-18T14:51:32.218Z,99870.72
2023-03-18T14:56:40.720Z,99865.22
2023-03-18T15:01:47.965Z,99858.16
2023-03-18T15:06:50.759Z,99867.56
2023-03-18T15:11:52.422Z,99882.00
2023-03-18T15:16:56.449Z,99875.59
2023-03-18T15:22:04.409Z,99870.59
2023-03-18T15:27:15.185Z,99864.84
2023-03-18T15:32:25.937Z,99867.81
2023-03-18T15:37:42.474Z,99859.50
2023-03-18T15:42:45.432Z,99857.28
2023-03-18T15:47:47.846Z,99863.66
2023-03-18T15:52:49.288Z,99865.44
2023-03-18T15:57:53.319Z,99861.31
2023-03-18T16:02:54.790Z,99855.13
2023-03-18T16:07:56.884Z,99855.69
2023-03-18T16:13:02.138Z,99856.16
2023-03-18T16:18:03.481Z,99856.81
2023-03-18T16:23:05.548Z,99851.84
2023-03-18T16:28:07.757Z,99852.03
2023-03-18T16:33:16.547Z,99849.41
2023-03-18T16:38:17.968Z,99850.72
2023-03-18T16:43:22.132Z,99852.38
2023-03-18T16:48:23.681Z,99852.31
2023-03-18T16:53:28.207Z,99856.47
2023-03-18T16:58:33.725Z,99856.66
2023-03-18T17:03:36.124Z,99870.75
2023-03-18T17:08:38.308Z,99859.94
2023-03-18T17:13:40.206Z,99872.09
2023-03-18T17:18:41.553Z,99875.31
2023-03-18T17:23:42.928Z,99878.06
2023-03-18T17:28:47.512Z,99879.38
2023-03-18T17:33:48.821Z,99886.53
2023-03-18T17:38:56.427Z,99884.13
2023-03-18T17:43:58.056Z,99897.38
2023-03-18T17:48:59.468Z,99893.44
2023-03-18T17:54:02.160Z,99895.13
2023-03-18T17:59:05.883Z,99899.22
2023-03-18T18:04:13.914Z,99906.31
2023-03-18T18:09:15.488Z,99903.13
2023-03-18T18:14:27.124Z,99898.22
2023-03-18T18:19:28.861Z,99908.84
2023-03-18T18:24:33.154Z,99907.31
2023-03-18T18:29:35.133Z,99898.88
2023-03-18T18:34:36.683Z,99902.66
2023-03-18T18:39:38.012Z,99903.09
2023-03-18T18:44:40.142Z,99906.91
2023-03-18T18:49:41.812Z,99914.09
2023-03-18T18:54:43.250Z,99911.22
2023-03-18T18:59:44.576Z,99910.16
2023-03-18T19:04:46.464Z,99906.25
2023-03-18T19:09:47.828Z,99910.09
2023-03-18T19:14:49.209Z,99912.13
2023-03-18T19:19:52.693Z,99920.56
2023-03-18T19:24:54.135Z,99926.19
2023-03-18T19:29:58.434Z,99932.69
2023-03-18T19:35:00.178Z,99928.41
2023-03-18T19:40:14.509Z,99929.50
2023-03-18T19:45:16.698Z,99937.47
2023-03-18T19:50:20.983Z,99930.47
2023-03-18T19:55:23.751Z,99936.72
2023-03-18T20:00:26.051Z,99938.38
2023-03-18T20:05:27.630Z,99948.78
2023-03-18T20:10:29.845Z,99956.09
2023-03-18T20:15:31.583Z,99963.34
2023-03-18T20:20:33.485Z,99960.47
2023-03-18T20:25:38.974Z,99961.09
2023-03-18T20:30:40.889Z,99960.88
2023-03-18T20:35:44.542Z,99959.03
2023-03-18T20:40:49.318Z,99965.03
2023-03-18T20:45:51.836Z,99969.00
2023-03-18T20:50:54.896Z,99976.88
2023-03-18T20:55:56.428Z,99973.56
2023-03-18T21:00:57.902Z,99976.25
2023-03-18T21:06:03.382Z,99968.34
2023-03-18T21:11:05.272Z,99975.44
2023-03-18T21:16:11.968Z,99977.72
2023-03-18T21:21:24.864Z,99979.16
2023-03-18T21:26:26.590Z,99986.66
2023-03-18T21:31:33.030Z,99983.50
2023-03-18T21:36:34.436Z,99973.25
2023-03-18T21:41:36.207Z,99981.84
2023-03-18T21:46:37.606Z,99981.59
2023-03-18T21:51:40.319Z,99978.28
2023-03-18T21:56:41.843Z,99980.34
2023-03-18T22:01:43.220Z,99969.38
2023-03-18T22:06:44.596Z,99966.88
2023-03-18T22:11:45.995Z,99964.56
2023-03-18T22:16:47.379Z,99966.47
2023-03-18T22:21:48.726Z,99963.97
2023-03-18T22:26:50.391Z,99966.06
2023-03-18T22:31:52.032Z,99967.53
2023-03-18T22:36:53.342Z,99961.31
2023-03-18T22:41:54.780Z,99963.16
2023-03-18T22:46:56.356Z,99977.28
2023-03-18T22:51:57.736Z,99967.53
2023-03-18T22:56:59.058Z,99968.16
2023-03-18T23:02:00.455Z,99984.53
2023-03-18T23:07:01.872Z,99982.25
2023-03-18T23:12:03.381Z,99988.72
2023-03-18T23:17:04.763Z,99990.38
2023-03-18T23:22:06.445Z,99988.53
2023-03-18T23:27:08.133Z,99984.78
2023-03-18T23:32:10.546Z,99987.06
2023-03-18T23:37:12.738Z,99987.06
2023-03-18T23:42:15.418Z,99982.06
2023-03-18T23:47:16.946Z,99989.97
2023-03-18T23:52:18.282Z,99992.03
2023-03-18T23:57:19.652Z,99992.25
